Time;durP1;ratioP1;P1;durP2;ratioP2;P2;SDS_P1;SDS_P2;PMS_P1;PMS_P2;Temp;Humidity;BMP_temperature;BMP_pressure;BME280_temperature;BME280_humidity;BME280_pressure;Samples;Min_cycle;Max_cycle;Signal;HPM_P1;HPM_P2
2021/04/03 00:01:06;;;;;;;9.35;2.22;;;;;;;18.16;20.13;99721.09;4921994;29;20055;-73
2021/04/03 00:03:33;;;;;;;5.43;1.83;;;;;;;18.26;20.20;99714.03;4922217;29;20406;-74
2021/04/03 00:06:01;;;;;;;6.93;1.75;;;;;;;18.37;20.64;99711.25;4929541;29;20135;-74
2021/04/03 00:08:28;;;;;;;7.30;1.75;;;;;;;18.42;20.59;99709.03;4927579;29;20046;-73
2021/04/03 00:11:01;;;;;;;3.88;1.50;;;;;;;18.20;20.89;99704.03;4902034;29;20127;-72
2021/04/03 00:13:34;;;;;;;8.23;2.08;;;;;;;18.06;20.88;99692.13;4921287;29;20399;-71
2021/04/03 00:16:02;;;;;;;2.85;1.50;;;;;;;17.99;21.71;99691.81;4922698;29;20368;-70
2021/04/03 00:18:29;;;;;;;3.88;1.25;;;;;;;17.89;21.80;99684.84;4923615;29;20039;-71
2021/04/03 00:20:56;;;;;;;7.32;3.50;;;;;;;17.92;21.67;99690.69;4926755;29;20052;-70
2021/04/03 00:23:22;;;;;;;5.85;2.47;;;;;;;17.93;21.04;99696.81;4916997;29;20458;-69
2021/04/03 00:25:50;;;;;;;3.47;1.63;;;;;;;17.95;21.43;99701.00;4917230;29;20048;-69
2021/04/03 00:28:17;;;;;;;7.65;1.70;;;;;;;18.14;21.19;99705.44;4907932;29;20127;-71
2021/04/03 00:30:45;;;;;;;2.38;1.85;;;;;;;17.68;21.67;99703.38;4920725;29;20138;-71
2021/04/03 00:33:11;;;;;;;2.67;1.75;;;;;;;17.57;21.75;99696.41;4920482;29;20107;-72
2021/04/03 00:35:40;;;;;;;4.32;1.88;;;;;;;17.59;22.16;99689.22;4923781;29;20050;-72
2021/04/03 00:38:09;;;;;;;5.25;1.48;;;;;;;17.83;21.67;99685.41;4920582;29;20155;-72
2021/04/03 00:40:39;;;;;;;7.40;1.88;;;;;;;17.69;22.06;99690.09;4925859;29;20040;-72
2021/04/03 00:43:10;;;;;;;2.17;1.50;;;;;;;17.82;22.10;99686.38;4923083;29;20525;-73
2021/04/03 00:45:36;;;;;;;3.80;1.60;;;;;;;17.82;22.12;99689.03;4920184;29;20042;-72
2021/04/03 00:48:05;;;;;;;7.22;2.25;;;;;;;17.79;21.75;99698.06;4920631;29;20058;-71
2021/04/03 00:50:40;;;;;;;3.05;1.38;;;;;;;17.89;21.70;99696.25;4922291;29;20052;-71
2021/04/03 00:53:09;;;;;;;5.10;1.95;;;;;;;17.77;22.30;99687.63;4926205;29;20043;-72
2021/04/03 00:55:39;;;;;;;10.65;1.77;;;;;;;17.78;21.84;99699.81;4917278;29;20495;-73
2021/04/03 00:58:08;;;;;;;4.85;1.65;;;;;;;17.84;21.93;99703.72;4921572;29;20044;-75
2021/04/03 01:00:37;;;;;;;3.80;2.28;;;;;;;17.65;22.60;99701.03;4922571;29;20106;-75
2021/04/03 01:03:04;;;;;;;7.85;2.40;;;;;;;17.70;22.12;99699.66;4905237;29;20047;-74
2021/04/03 01:05:31;;;;;;;2.50;1.60;;;;;;;17.92;21.96;99692.50;4923311;29;20048;-74
2021/04/03 01:07:59;;;;;;;6.13;1.95;;;;;;;17.99;22.03;99696.25;4902988;29;20044;-74
2021/04/03 01:10:37;;;;;;;7.18;2.22;;;;;;;17.75;22.86;99688.75;4908710;29;20497;-75
2021/04/03 01:13:19;;;;;;;5.65;1.92;;;;;;;17.56;23.19;99681.56;4923263;29;20048;-74
2021/04/03 01:15:50;;;;;;;3.55;1.63;;;;;;;17.48;23.78;99676.16;4907892;29;20059;-74
2021/04/03 01:18:30;;;;;;;4.70;2.25;;;;;;;17.27;24.21;99669.16;4920558;29;20052;-72
2021/04/03 01:20:56;;;;;;;2.53;1.33;;;;;;;17.49;23.36;99672.56;4929142;29;20095;-71
2021/04/03 01:24:01;;;;;;;4.53;1.80;;;;;;;17.32;23.86;99694.28;4903891;29;20039;-71
2021/04/03 01:26:57;;;;;;;8.88;1.88;;;;;;;17.51;23.91;99703.06;4927803;29;20559;-71
2021/04/03 01:29:47;;;;;;;17.15;2.38;;;;;;;17.42;24.34;99688.06;4907149;29;20074;-71
2021/04/03 01:32:21;;;;;;;6.10;2.40;;;;;;;17.27;24.32;99679.69;4900154;29;20541;-72
2021/04/03 01:34:48;;;;;;;4.15;2.05;;;;;;;17.32;24.41;99686.38;4931269;29;20135;-72
2021/04/03 01:37:20;;;;;;;4.70;1.80;;;;;;;17.28;24.73;99697.16;4918585;29;20040;-72
2021/04/03 01:39:50;;;;;;;7.88;1.95;;;;;;;17.17;25.20;99697.25;4926100;29;20050;-71
2021/04/03 01:42:21;;;;;;;3.67;1.92;;;;;;;17.10;24.99;99703.16;4925333;29;20103;-71
2021/04/03 01:44:51;;;;;;;2.88;1.92;;;;;;;16.98;25.11;99698.00;4925180;29;20139;-71
2021/04/03 01:47:24;;;;;;;10.45;2.67;;;;;;;17.12;24.69;99712.63;4908076;29;20044;-71
2021/04/03 01:49:53;;;;;;;5.30;2.35;;;;;;;17.09;24.89;99709.41;4910274;29;20043;-71
2021/04/03 01:52:25;;;;;;;3.80;1.90;;;;;;;17.07;25.47;99706.91;4923024;29;20060;-71
2021/04/03 01:54:55;;;;;;;2.90;1.65;;;;;;;16.99;25.38;99701.44;4907602;29;20135;-71
2021/04/03 01:57:25;;;;;;;3.88;1.40;;;;;;;17.20;25.16;99709.31;4923936;29;20067;-71
2021/04/03 02:00:03;;;;;;;6.63;2.13;;;;;;;17.23;25.53;99714.34;4923884;29;20044;-72
2021/04/03 02:02:43;;;;;;;3.85;1.80;;;;;;;17.17;26.01;99715.69;4927805;29;20040;-72
2021/04/03 02:05:15;;;;;;;3.88;1.30;;;;;;;17.10;26.57;99711.06;4907725;29;20040;-72
2021/04/03 02:07:48;;;;;;;6.07;2.15;;;;;;;16.86;27.17;99717.47;4910838;29;20039;-71
2021/04/03 02:10:20;;;;;;;6.85;1.90;;;;;;;16.86;27.82;99714.84;4923622;29;20047;-71
2021/04/03 02:12:48;;;;;;;2.85;1.58;;;;;;;16.85;27.93;99718.44;4924547;29;20524;-73
2021/04/03 02:15:37;;;;;;;2.15;1.33;;;;;;;16.94;27.88;99701.03;4920806;29;20048;-72
2021/04/03 02:18:07;;;;;;;3.55;1.83;;;;;;;16.89;28.10;99695.34;4943008;29;20051;-72
2021/04/03 02:20:40;;;;;;;3.83;1.50;;;;;;;17.00;28.29;99682.09;4934709;28;20072;-72
2021/04/03 02:23:08;;;;;;;3.80;1.55;;;;;;;16.91;28.52;99682.84;4924648;29;20051;-72
2021/04/03 02:25:37;;;;;;;4.30;2.08;;;;;;;16.55;29.12;99686.75;4926227;29;20040;-72
2021/04/03 02:28:04;;;;;;;2.15;1.70;;;;;;;16.55;29.13;99687.59;4924395;29;20126;-73
2021/04/03 02:30:43;;;;;;;2.58;1.85;;;;;;;16.52;29.59;99679.16;4904490;29;20466;-74
2021/04/03 02:33:10;;;;;;;6.07;1.90;;;;;;;16.46;29.64;99678.69;4908623;29;20050;-72
2021/04/03 02:35:36;;;;;;;4.65;1.88;;;;;;;16.53;29.66;99684.28;4922553;29;20495;-72
2021/04/03 02:38:05;;;;;;;4.25;1.60;;;;;;;16.41;30.13;99687.94;4911374;29;20127;-72
2021/04/03 02:40:40;;;;;;;8.43;1.67;;;;;;;16.39;30.41;99684.56;4925307;29;20048;-72
2021/04/03 02:43:32;;;;;;;7.53;1.80;;;;;;;16.40;30.84;99680.97;4924709;29;20040;-72
2021/04/03 02:46:06;;;;;;;5.38;1.73;;;;;;;16.36;31.02;99680.41;4923831;29;20131;-72
2021/04/03 02:48:37;;;;;;;2.53;1.65;;;;;;;16.53;30.67;99684.28;4905962;29;20043;-72
2021/04/03 02:51:07;;;;;;;4.30;1.75;;;;;;;16.60;30.49;99685.41;4921233;29;20067;-72
2021/04/03 02:53:36;;;;;;;5.40;1.92;;;;;;;16.69;30.70;99673.28;4910296;29;20067;-72
2021/04/03 02:56:14;;;;;;;3.17;2.15;;;;;;;16.35;31.72;99673.50;4923225;29;20126;-72
2021/04/03 02:58:44;;;;;;;3.58;2.00;;;;;;;16.31;31.89;99671.25;4919658;29;20039;-72
2021/04/03 03:01:16;;;;;;;5.03;2.58;;;;;;;16.13;32.34;99686.72;4921773;29;20051;-72
2021/04/03 03:03:53;;;;;;;3.63;1.77;;;;;;;16.14;32.42;99686.63;4906000;29;20051;-72
2021/04/03 03:06:22;;;;;;;6.30;2.00;;;;;;;16.08;32.62;99687.09;4920624;29;20052;-75
2021/04/03 03:08:51;;;;;;;2.63;2.00;;;;;;;16.02;32.99;99687.59;4906435;29;20032;-75
2021/04/03 03:11:22;;;;;;;2.75;2.13;;;;;;;15.88;33.85;99694.00;4909689;29;20063;-74
2021/04/03 03:13:50;;;;;;;3.92;2.13;;;;;;;15.90;33.93;99680.72;4922413;29;20052;-70
2021/04/03 03:16:20;;;;;;;8.75;2.58;;;;;;;15.85;34.15;99672.38;4926285;29;20135;-70
2021/04/03 03:18:48;;;;;;;4.40;1.92;;;;;;;15.81;34.21;99666.50;4926624;29;20039;-70
2021/04/03 03:21:16;;;;;;;6.53;2.72;;;;;;;15.81;34.12;99655.16;4910842;29;20135;-70
2021/04/03 03:23:45;;;;;;;7.38;2.03;;;;;;;16.01;33.44;99661.44;4907561;29;20122;-71
2021/04/03 03:26:12;;;;;;;4.65;3.17;;;;;;;16.09;33.32;99659.84;4922700;29;20052;-71
2021/04/03 03:28:39;;;;;;;6.65;2.38;;;;;;;15.84;33.95;99661.03;4904667;29;20044;-72
2021/04/03 03:31:08;;;;;;;5.93;2.83;;;;;;;15.85;34.10;99669.72;4921772;29;20054;-71
2021/04/03 03:33:35;;;;;;;7.32;2.38;;;;;;;15.79;34.61;99672.88;4917119;29;20048;-71
2021/04/03 03:36:07;;;;;;;5.13;2.35;;;;;;;15.71;34.01;99676.94;4924668;29;20139;-71
2021/04/03 03:38:36;;;;;;;5.30;2.50;;;;;;;15.68;34.83;99661.41;4921421;29;20044;-72
2021/04/03 03:41:07;;;;;;;6.10;3.58;;;;;;;15.53;35.23;99670.50;4909458;29;20489;-71
2021/04/03 03:43:37;;;;;;;7.80;2.53;;;;;;;15.51;35.66;99672.41;4908425;29;20040;-71
2021/04/03 03:46:06;;;;;;;4.78;2.60;;;;;;;15.60;34.91;99673.47;4903249;29;20075;-71
2021/04/03 03:48:34;;;;;;;6.50;2.92;;;;;;;15.62;35.11;99677.66;4905252;29;20039;-71
2021/04/03 03:51:01;;;;;;;5.82;3.08;;;;;;;15.59;35.34;99674.41;4904077;29;20633;-71
2021/04/03 03:53:34;;;;;;;6.30;3.03;;;;;;;15.74;35.12;99672.41;4907257;29;20146;-71
2021/04/03 03:56:01;;;;;;;3.83;2.67;;;;;;;15.46;35.72;99677.19;4922087;29;20055;-72
2021/04/03 03:58:30;;;;;;;6.65;2.35;;;;;;;15.72;35.74;99675.16;4919853;29;20103;-72
2021/04/03 04:00:56;;;;;;;7.30;3.00;;;;;;;15.66;35.79;99683.53;4924701;29;20095;-73
2021/04/03 04:03:23;;;;;;;4.53;2.88;;;;;;;15.44;36.14;99674.66;4904439;29;20573;-72
2021/04/03 04:05:54;;;;;;;9.65;3.38;;;;;;;15.28;36.68;99674.22;4906649;29;20162;-72
2021/04/03 04:08:24;;;;;;;7.32;2.50;;;;;;;15.43;36.37;99677.44;4921033;29;20060;-72
2021/04/03 04:10:57;;;;;;;9.70;3.13;;;;;;;15.25;36.83;99674.47;4926904;29;20056;-73
2021/04/03 04:13:24;;;;;;;6.47;2.90;;;;;;;15.18;37.06;99673.28;4923902;29;20063;-72
2021/04/03 04:15:52;;;;;;;4.90;3.00;;;;;;;15.10;37.38;99676.50;4918191;29;20127;-73
2021/04/03 04:18:21;;;;;;;14.10;3.65;;;;;;;15.35;36.56;99682.47;4920130;29;20050;-73
2021/04/03 04:20:48;;;;;;;7.03;3.60;;;;;;;15.41;36.43;99689.84;4903076;29;20761;-73
2021/04/03 04:23:24;;;;;;;4.72;3.67;;;;;;;15.31;36.34;99699.41;4923110;29;20048;-73
2021/04/03 04:25:55;;;;;;;8.63;4.75;;;;;;;15.34;36.64;99701.78;4920179;29;20139;-73
2021/04/03 04:28:25;;;;;;;10.65;3.78;;;;;;;15.28;36.71;99704.88;4910793;29;20146;-71
2021/04/03 04:30:51;;;;;;;6.28;3.50;;;;;;;15.20;37.01;99708.13;4920247;29;20098;-72
2021/04/03 04:33:18;;;;;;;9.95;4.40;;;;;;;15.31;36.57;99712.53;4921510;29;20079;-77
2021/04/03 04:35:47;;;;;;;6.30;4.10;;;;;;;15.13;36.82;99713.03;4921798;29;20115;-74
2021/04/03 04:38:19;;;;;;;7.22;4.00;;;;;;;15.17;37.16;99714.44;4913334;29;20522;-73
2021/04/03 04:40:47;;;;;;;6.38;4.68;;;;;;;15.10;37.49;99722.91;4918034;29;20113;-73
2021/04/03 04:43:25;;;;;;;9.40;4.30;;;;;;;15.02;37.37;99723.53;4918083;29;20043;-73
2021/04/03 04:45:54;;;;;;;8.30;4.25;;;;;;;15.21;37.18;99722.91;4937625;29;20051;-73
2021/04/03 04:48:27;;;;;;;6.18;3.78;;;;;;;15.15;37.18;99724.22;4921210;29;20043;-72
2021/04/03 04:51:01;;;;;;;11.73;4.57;;;;;;;14.98;37.76;99727.31;4917982;29;20191;-71
2021/04/03 04:53:32;;;;;;;7.75;3.42;;;;;;;14.95;37.50;99735.41;4948400;29;20044;-68
2021/04/03 04:56:01;;;;;;;7.30;3.55;;;;;;;14.89;38.35;99735.88;4923875;29;20502;-70
2021/04/03 04:58:31;;;;;;;7.90;3.75;;;;;;;15.10;37.28;99736.88;4909593;29;20045;-68
2021/04/03 05:01:00;;;;;;;9.32;3.72;;;;;;;14.97;37.66;99744.03;4934429;29;20131;-69
2021/04/03 05:03:36;;;;;;;7.60;3.92;;;;;;;15.12;37.32;99744.63;4924331;29;20040;-71
2021/04/03 05:06:03;;;;;;;9.82;4.45;;;;;;;15.09;37.55;99758.84;4921509;29;20116;-70
2021/04/03 05:08:30;;;;;;;8.45;4.10;;;;;;;15.02;37.95;99768.13;4914774;29;20125;-70
2021/04/03 05:10:58;;;;;;;4.15;3.75;;;;;;;14.98;38.04;99769.31;4907930;29;20040;-70
2021/04/03 05:13:24;;;;;;;4.15;3.67;;;;;;;15.00;37.95;99774.44;4902617;29;20051;-74
2021/04/03 05:15:58;;;;;;;8.30;4.93;;;;;;;15.04;37.81;99776.72;4910587;29;20782;-72
2021/04/03 05:18:26;;;;;;;8.02;5.00;;;;;;;15.16;37.70;99782.81;4919991;29;20415;-71
2021/04/03 05:20:54;;;;;;;11.68;5.63;;;;;;;15.31;37.61;99793.94;4918952;29;20079;-72
2021/04/03 05:23:25;;;;;;;14.65;5.50;;;;;;;15.28;37.75;99794.16;4918172;29;20044;-73
2021/04/03 05:25:52;;;;;;;8.40;5.35;;;;;;;15.33;37.80;99802.53;4917607;29;20052;-73
2021/04/03 05:28:18;;;;;;;8.77;5.70;;;;;;;15.45;37.42;99801.59;4918583;29;20048;-72
2021/04/03 05:30:45;;;;;;;8.57;5.63;;;;;;;15.42;37.58;99812.34;4914215;29;20115;-69
2021/04/03 05:33:11;;;;;;;13.70;5.78;;;;;;;15.45;38.01;99815.56;4925586;29;20060;-70
2021/04/03 05:35:38;;;;;;;12.57;5.70;;;;;;;15.56;38.08;99813.91;4910334;29;20500;-70
2021/04/03 05:38:06;;;;;;;17.02;6.93;;;;;;;15.70;38.10;99822.41;4913177;29;20044;-68
2021/04/03 05:40:33;;;;;;;14.82;7.85;;;;;;;15.91;38.08;99826.94;4914113;29;20458;-71
2021/04/03 05:43:03;;;;;;;11.40;8.30;;;;;;;15.96;38.46;99833.50;4918365;29;20040;-71
2021/04/03 05:45:37;;;;;;;14.25;9.00;;;;;;;16.16;38.76;99836.34;4917094;29;20048;-71
2021/04/03 05:48:04;;;;;;;11.65;8.82;;;;;;;16.57;38.25;99834.84;4918754;29;20463;-71
2021/04/03 05:50:32;;;;;;;13.75;8.30;;;;;;;16.85;37.56;99842.16;4917721;29;20071;-70
2021/04/03 05:52:59;;;;;;;19.70;9.40;;;;;;;16.87;37.36;99842.84;4918064;29;20052;-67
2021/04/03 05:55:26;;;;;;;14.15;7.85;;;;;;;16.93;37.44;99838.88;4913801;29;20448;-69
2021/04/03 05:57:52;;;;;;;11.30;8.30;;;;;;;17.13;36.84;99850.41;4918211;29;20051;-69
2021/04/03 06:00:19;;;;;;;9.65;6.70;;;;;;;17.34;36.42;99838.06;4917994;29;20067;-71
2021/04/03 06:02:47;;;;;;;8.18;5.80;;;;;;;17.25;36.15;99844.94;4918125;29;20396;-77
2021/04/03 06:05:13;;;;;;;8.50;6.30;;;;;;;17.20;36.43;99836.56;4918140;29;20055;-77
2021/04/03 06:07:40;;;;;;;9.13;5.80;;;;;;;17.26;36.85;99838.72;4918829;29;20100;-78
2021/04/03 06:10:08;;;;;;;9.48;6.97;;;;;;;17.53;36.69;99842.63;4918337;29;20502;-77
2021/04/03 06:12:48;;;;;;;13.20;7.60;;;;;;;17.70;36.39;99843.81;4918938;29;20107;-77
2021/04/03 06:15:22;;;;;;;15.40;8.43;;;;;;;17.53;37.65;99847.88;4917504;29;20068;-77
2021/04/03 06:17:54;;;;;;;16.95;11.10;;;;;;;17.41;38.93;99838.38;4918186;29;20142;-78
2021/04/03 06:20:35;;;;;;;21.48;12.60;;;;;;;17.28;40.36;99849.94;4918139;29;20040;-78
2021/04/03 06:23:03;;;;;;;22.50;15.30;;;;;;;16.99;41.83;99855.03;4916272;29;20131;-77
2021/04/03 06:25:30;;;;;;;20.52;15.73;;;;;;;16.76;42.29;99858.69;4917447;29;20036;-78
2021/04/03 06:28:09;;;;;;;27.30;14.82;;;;;;;16.71;43.50;99855.59;4917877;29;20044;-77
2021/04/03 06:30:38;;;;;;;24.88;15.10;;;;;;;16.74;43.74;99850.94;4917378;29;20044;-76
2021/04/03 06:33:18;;;;;;;32.00;18.25;;;;;;;17.04;44.31;99852.00;4917643;29;20551;-78
2021/04/03 06:36:06;;;;;;;22.60;18.55;;;;;;;17.27;44.21;99850.91;4918625;29;20044;-76
2021/04/03 06:38:33;;;;;;;43.28;18.60;;;;;;;17.31;45.08;99837.47;4917571;29;20051;-71
2021/04/03 06:41:25;;;;;;;28.27;18.60;;;;;;;17.33;46.83;99840.84;4917797;29;20415;-79
2021/04/03 06:44:08;;;;;;;26.45;19.05;;;;;;;17.07;48.90;99846.47;4918373;29;20563;-79
2021/04/03 06:46:40;;;;;;;33.00;21.25;;;;;;;17.08;49.89;99845.50;4908949;29;20078;-78
2021/04/03 06:49:07;;;;;;;37.22;19.77;;;;;;;16.87;51.57;99844.66;4911192;29;20036;-79
2021/04/03 06:51:35;;;;;;;31.40;22.17;;;;;;;17.06;51.49;99850.09;4921880;29;20051;-78
2021/04/03 06:54:04;;;;;;;26.80;20.73;;;;;;;17.09;51.75;99865.59;4927436;29;20122;-77
2021/04/03 06:56:36;;;;;;;28.65;22.35;;;;;;;16.89;54.78;99850.66;4932213;29;20055;-76
2021/04/03 06:59:04;;;;;;;34.65;23.42;;;;;;;16.79;55.09;99852.38;4926148;29;20118;-75
2021/04/03 07:01:42;;;;;;;29.67;23.80;;;;;;;16.89;54.35;99866.44;4927346;29;20494;-75
2021/04/03 07:04:30;;;;;;;35.88;23.92;;;;;;;16.89;54.89;99861.19;4928255;29;20948;-78
2021/04/03 07:06:58;;;;;;;35.75;23.30;;;;;;;16.83;55.01;99853.75;4913914;29;20044;-79
2021/04/03 07:09:25;;;;;;;31.35;21.15;;;;;;;16.90;54.55;99850.50;4937513;29;20068;-79
2021/04/03 07:11:53;;;;;;;25.00;19.95;;;;;;;16.87;56.01;99849.94;4937754;29;20063;-69
2021/04/03 07:14:21;;;;;;;33.28;21.70;;;;;;;16.67;57.01;99847.13;4934624;29;20044;-72
2021/04/03 07:16:49;;;;;;;31.63;20.77;;;;;;;17.58;55.67;99850.97;4934574;29;20044;-70
2021/04/03 07:19:18;;;;;;;40.63;21.58;;;;;;;17.37;56.44;99852.78;4935697;29;20052;-71
2021/04/03 07:21:47;;;;;;;28.77;20.42;;;;;;;17.39;55.57;99861.38;4935581;29;20052;-71
2021/04/03 07:24:16;;;;;;;25.42;19.17;;;;;;;17.32;56.82;99870.78;4935159;29;20040;-73
2021/04/03 07:26:46;;;;;;;22.08;17.38;;;;;;;16.99;57.92;99875.22;4929283;29;20498;-74
2021/04/03 07:29:40;;;;;;;26.50;20.88;;;;;;;16.86;58.28;99880.69;4935411;29;20051;-72
2021/04/03 07:32:42;;;;;;;30.35;19.63;;;;;;;16.87;58.01;99878.88;4934622;29;20051;-73
2021/04/03 07:35:27;;;;;;;32.72;19.92;;;;;;;16.66;58.45;99882.25;4927931;29;20044;-73
2021/04/03 07:37:54;;;;;;;34.67;20.95;;;;;;;16.71;58.56;99876.66;4933382;29;20099;-73
2021/04/03 07:40:23;;;;;;;41.15;22.85;;;;;;;16.89;58.17;99880.44;4933832;29;20526;-71
2021/04/03 07:42:50;;;;;;;32.55;19.50;;;;;;;16.90;58.75;99881.28;4934299;29;20051;-68
2021/04/03 07:45:33;;;;;;;23.52;17.63;;;;;;;16.99;58.49;99885.75;4933803;29;20044;-69
2021/04/03 07:47:59;;;;;;;27.33;17.65;;;;;;;17.68;56.26;99883.44;4934074;29;20039;-67
2021/04/03 07:50:45;;;;;;;29.52;18.83;;;;;;;18.25;54.78;99887.34;4933144;29;20051;-67
2021/04/03 07:53:40;;;;;;;31.75;19.42;;;;;;;18.17;53.92;99889.81;4932977;29;20051;-68
2021/04/03 07:56:07;;;;;;;31.02;20.90;;;;;;;18.06;54.11;99889.94;4933122;29;20114;-68
2021/04/03 07:58:46;;;;;;;26.50;20.08;;;;;;;18.44;53.28;99896.28;4932433;29;20063;-69
2021/04/03 08:01:21;;;;;;;29.75;23.25;;;;;;;18.23;53.97;99897.19;4932566;29;20379;-69
2021/04/03 08:04:08;;;;;;;27.48;20.77;;;;;;;17.83;55.56;99905.06;4933193;29;20046;-71
2021/04/03 10:19:10;;;;;;;29.20;15.25;;;;;;;17.33;62.13;100001.53;5073808;28;20409;-74
2021/04/03 10:21:37;;;;;;;33.30;16.30;;;;;;;17.42;61.06;100003.41;5070758;28;20041;-74
2021/04/03 10:24:05;;;;;;;29.77;19.48;;;;;;;17.49;60.87;100009.84;5085460;28;20083;-70
2021/04/03 10:26:32;;;;;;;22.40;16.52;;;;;;;17.50;61.37;100003.63;5075825;28;20123;-74
2021/04/03 10:28:58;;;;;;;18.50;16.17;;;;;;;17.40;61.96;100000.06;5082017;28;20051;-72
2021/04/03 10:31:25;;;;;;;17.50;14.75;;;;;;;17.53;61.78;100006.84;5083252;28;20444;-72
2021/04/03 10:33:51;;;;;;;28.77;20.55;;;;;;;17.34;62.03;100011.09;5079515;28;20078;-72
2021/04/03 10:36:18;;;;;;;26.60;16.35;;;;;;;17.32;62.24;100013.88;5085789;28;20431;-71
2021/04/03 10:38:47;;;;;;;24.40;17.08;;;;;;;17.26;62.94;100019.66;5082031;28;20511;-76
2021/04/03 10:41:15;;;;;;;31.90;15.55;;;;;;;16.80;62.39;100033.03;5083299;28;20123;-75
2021/04/03 10:43:42;;;;;;;19.08;8.90;;;;;;;16.68;61.46;100026.91;5086529;28;20479;-71
2021/04/03 10:46:08;;;;;;;22.30;9.77;;;;;;;16.44;62.92;100022.59;5082156;28;20125;-74
2021/04/03 10:48:36;;;;;;;31.45;10.65;;;;;;;16.47;62.83;100026.78;5079033;28;20048;-74
2021/04/03 10:51:04;;;;;;;15.13;8.65;;;;;;;16.48;62.89;100031.09;5067330;28;20052;-75
2021/04/03 10:53:32;;;;;;;24.35;8.57;;;;;;;16.37;62.73;100033.72;5067763;28;20068;-72
2021/04/03 10:55:58;;;;;;;22.95;8.32;;;;;;;16.41;63.32;100033.38;5067354;28;20048;-75
2021/04/03 10:58:25;;;;;;;17.90;7.47;;;;;;;16.32;64.17;100043.75;5071854;28;20045;-76
2021/04/03 11:00:52;;;;;;;28.83;7.72;;;;;;;16.34;64.75;100044.47;5070568;28;20127;-73
2021/04/03 11:03:19;;;;;;;20.90;7.15;;;;;;;16.15;65.76;100048.53;5068586;28;20055;-69
2021/04/03 11:05:46;;;;;;;23.90;7.40;;;;;;;16.03;66.29;100053.84;5066672;28;20048;-71
2021/04/03 11:08:12;;;;;;;21.33;7.72;;;;;;;16.18;66.56;100058.78;5071839;28;20454;-71
2021/04/03 11:10:39;;;;;;;17.27;7.55;;;;;;;16.45;66.19;100057.63;5065945;28;20586;-75
2021/04/03 11:13:05;;;;;;;20.92;9.43;;;;;;;16.54;66.43;100061.34;5066423;28;20045;-70
2021/04/03 11:15:32;;;;;;;30.15;7.82;;;;;;;16.33;66.70;100051.53;5067232;28;20032;-70
2021/04/03 11:17:58;;;;;;;18.75;7.03;;;;;;;16.25;65.65;100061.81;5066150;28;20414;-67
2021/04/03 11:20:25;;;;;;;21.08;6.50;;;;;;;16.28;66.79;100069.44;5067178;28;20043;-68
2021/04/03 11:22:54;;;;;;;22.88;7.75;;;;;;;16.29;66.70;100065.88;5066986;28;20048;-68
2021/04/03 11:25:21;;;;;;;18.25;6.70;;;;;;;16.27;66.14;100067.78;5070582;28;20090;-69
2021/04/03 11:27:47;;;;;;;25.52;5.88;;;;;;;16.19;64.45;100071.00;5077544;28;20044;-67
2021/04/03 11:30:14;;;;;;;24.40;6.93;;;;;;;16.43;63.21;100064.81;5056516;28;20033;-67
2021/04/03 11:32:49;;;;;;;20.35;7.38;;;;;;;16.03;62.95;100065.22;5054503;28;20037;-69
2021/04/03 11:35:17;;;;;;;33.95;6.35;;;;;;;16.03;63.11;100062.59;5054402;28;20037;-68
2021/04/03 11:37:48;;;;;;;38.85;6.78;;;;;;;15.88;61.75;100076.91;5060437;28;20461;-69
2021/04/03 11:40:15;;;;;;;13.65;5.05;;;;;;;15.88;62.25;100074.28;5059026;28;20094;-68
2021/04/03 11:42:45;;;;;;;11.75;4.57;;;;;;;15.95;61.47;100071.06;5062484;28;20048;-67
2021/04/03 11:45:12;;;;;;;18.92;5.07;;;;;;;15.87;62.04;100075.19;5060918;28;20075;-67
2021/04/03 11:47:39;;;;;;;20.45;4.70;;;;;;;15.87;62.08;100062.94;5061250;28;20559;-67
2021/04/03 11:50:07;;;;;;;19.80;5.78;;;;;;;15.75;62.30;100071.69;5061621;28;20037;-67
2021/04/03 11:52:35;;;;;;;17.38;4.32;;;;;;;15.84;60.57;100076.28;5063014;28;20060;-68
2021/04/03 11:55:03;;;;;;;14.23;5.00;;;;;;;15.74;61.29;100063.94;5062081;28;20095;-67
2021/04/03 11:57:30;;;;;;;21.08;5.05;;;;;;;15.82;60.66;100098.34;5061832;28;20505;-69
2021/04/03 11:59:57;;;;;;;13.13;4.63;;;;;;;15.57;60.98;100068.63;5060573;28;20082;-71
2021/04/03 12:02:23;;;;;;;17.63;4.85;;;;;;;15.69;60.26;100072.16;5059695;28;20801;-71
2021/04/03 12:04:50;;;;;;;14.77;4.45;;;;;;;15.94;59.80;100071.19;5055941;28;20044;-70
2021/04/03 12:07:17;;;;;;;16.52;4.65;;;;;;;15.89;60.20;100074.16;5052949;28;20033;-70
2021/04/03 12:09:43;;;;;;;15.75;4.78;;;;;;;16.05;59.43;100084.34;5063082;28;20091;-71
2021/04/03 12:12:10;;;;;;;20.70;6.35;;;;;;;15.94;59.10;100077.28;5066218;28;20441;-67
2021/04/03 12:14:36;;;;;;;31.20;5.22;;;;;;;16.04;58.59;100080.06;5052436;28;20491;-68
2021/04/03 12:17:03;;;;;;;18.75;4.05;;;;;;;16.06;58.44;100091.28;5053048;28;20128;-68
2021/04/03 12:19:29;;;;;;;20.73;5.28;;;;;;;15.76;58.26;100083.06;5056245;28;20048;-69
2021/04/03 12:21:56;;;;;;;18.73;4.38;;;;;;;15.55;58.34;100094.16;5056712;28;20055;-70
2021/04/03 12:24:22;;;;;;;12.07;4.13;;;;;;;15.58;58.00;100085.22;5053585;28;20119;-70
2021/04/03 12:26:49;;;;;;;35.80;5.38;;;;;;;15.57;58.65;100080.94;5056926;28;20067;-70
2021/04/03 12:29:15;;;;;;;16.80;5.03;;;;;;;15.69;58.73;100077.41;5063998;28;20033;-73
2021/04/03 12:31:42;;;;;;;12.85;3.50;;;;;;;15.66;57.95;100081.13;5059431;28;20037;-70
2021/04/03 12:34:08;;;;;;;18.90;4.70;;;;;;;15.64;58.08;100079.53;5052988;28;20037;-75
2021/04/03 12:36:35;;;;;;;20.83;4.07;;;;;;;15.62;58.58;100082.25;5054296;28;20484;-72
2021/04/03 12:39:02;;;;;;;18.30;4.47;;;;;;;15.71;57.91;100078.13;5058395;28;20045;-73
2021/04/03 12:41:29;;;;;;;8.73;3.78;;;;;;;15.66;58.27;100072.41;5052488;28;20510;-73
2021/04/03 12:43:55;;;;;;;13.27;4.00;;;;;;;15.49;57.93;100075.38;5053691;28;20037;-73
2021/04/03 12:46:22;;;;;;;22.27;4.07;;;;;;;15.60;57.80;100071.00;5050619;28;20499;-74
2021/04/03 12:48:48;;;;;;;39.10;6.15;;;;;;;15.79;56.95;100067.06;5052001;28;20055;-73
2021/04/03 12:51:15;;;;;;;9.77;4.03;;;;;;;15.97;56.44;100061.25;5055253;28;20495;-72
2021/04/03 12:53:42;;;;;;;19.63;4.70;;;;;;;15.82;56.89;100069.44;5063208;28;20041;-72
2021/04/03 12:56:08;;;;;;;10.00;3.28;;;;;;;15.70;56.58;100065.94;5055188;28;20103;-72
2021/04/03 12:58:35;;;;;;;7.90;3.70;;;;;;;15.79;56.67;100064.44;5057990;28;20124;-71
2021/04/03 13:01:03;;;;;;;11.25;4.00;;;;;;;15.78;56.03;100063.59;5052402;28;20041;-72
2021/04/03 13:03:29;;;;;;;8.38;3.25;;;;;;;15.87;56.14;100064.69;5059882;28;20507;-72
2021/04/03 13:05:56;;;;;;;7.88;3.53;;;;;;;16.01;55.99;100050.53;5068976;28;20032;-74
2021/04/03 13:08:22;;;;;;;13.23;4.00;;;;;;;16.10;55.75;100061.19;5059966;28;20106;-72
2021/04/03 13:10:49;;;;;;;9.45;3.40;;;;;;;16.04;55.93;100061.66;5060294;28;20056;-72
2021/04/03 13:13:15;;;;;;;12.57;3.42;;;;;;;16.04;56.25;100053.75;5057599;28;20131;-74
2021/04/03 13:15:42;;;;;;;11.43;3.53;;;;;;;16.21;55.90;100050.69;5064196;28;20045;-73
2021/04/03 13:18:09;;;;;;;14.60;4.45;;;;;;;16.18;56.13;100048.28;5062970;28;20052;-73
2021/04/03 13:20:36;;;;;;;9.68;4.18;;;;;;;16.30;54.95;100058.81;5067733;28;20040;-72
2021/04/03 13:23:04;;;;;;;17.40;5.75;;;;;;;16.30;55.21;100062.31;5066885;28;20044;-73
2021/04/03 13:25:33;;;;;;;13.27;3.92;;;;;;;16.17;55.32;100053.66;5069931;28;20075;-73
2021/04/03 13:28:00;;;;;;;9.48;4.05;;;;;;;15.99;55.95;100058.53;5067075;28;20040;-72
2021/04/03 13:30:26;;;;;;;13.88;3.95;;;;;;;15.84;56.66;100047.38;5066890;28;20039;-73
2021/04/03 13:32:53;;;;;;;9.65;3.70;;;;;;;16.06;56.02;100053.63;5064098;28;20045;-73
2021/04/03 13:35:20;;;;;;;11.30;4.25;;;;;;;16.05;56.02;100055.44;5063461;28;20561;-72
2021/04/03 13:37:47;;;;;;;13.10;3.35;;;;;;;16.17;56.21;100059.75;5061503;28;20042;-73
2021/04/03 13:40:14;;;;;;;11.48;3.95;;;;;;;15.91;55.82;100055.63;5052750;28;20503;-72
2021/04/03 13:42:40;;;;;;;17.77;3.67;;;;;;;15.80;56.03;100048.53;5054103;28;20040;-73
2021/04/03 13:45:08;;;;;;;13.77;3.65;;;;;;;15.85;56.30;100050.84;5055554;28;20076;-73
2021/04/03 13:47:34;;;;;;;13.65;3.75;;;;;;;15.98;56.46;100056.88;5060939;28;20048;-72
2021/04/03 13:50:01;;;;;;;11.32;3.25;;;;;;;15.97;56.27;100049.91;5059189;28;20556;-71